Time;durP1;ratioP1;P1;durP2;ratioP2;P2;SDS_P1;SDS_P2;PMS_P1;PMS_P2;Temp;Humidity;BMP_temperature;BMP_pressure;BME280_temperature;BME280_humidity;BME280_pressure;Samples;Min_cycle;Max_cycle;Signal;HPM_P1;HPM_P2
2021/07/21 00:00:19;;;;;;;8.85;5.43;;;;;;;;;;5095135;28;20291;-62
2021/07/21 00:02:47;;;;;;;7.45;5.30;;;;;;;;;;5095122;28;20765;-60
2021/07/21 00:05:17;;;;;;;7.13;5.07;;;;;;;;;;5095550;28;20200;-61
2021/07/21 00:07:46;;;;;;;7.20;5.60;;;;;;;;;;5095539;28;20200;-61
2021/07/21 00:10:15;;;;;;;8.98;5.35;;;;;;;;;;5095426;28;20195;-62
2021/07/21 00:15:32;;;;;;;7.37;5.30;;;;;;;;;;5095466;28;20189;-61
2021/07/21 00:18:02;;;;;;;7.00;5.20;;;;;;;;;;5095476;28;20641;-61
2021/07/21 00:20:31;;;;;;;7.82;4.93;;;;;;;;;;5095478;28;20235;-61
2021/07/21 00:23:00;;;;;;;8.90;5.45;;;;;;;;;;5095622;28;20307;-61
2021/07/21 00:25:28;;;;;;;8.30;4.97;;;;;;;;;;5095967;28;20614;-61
2021/07/21 00:27:56;;;;;;;7.00;5.33;;;;;;;;;;5095452;28;20308;-63
2021/07/21 00:30:25;;;;;;;6.40;5.43;;;;;;;;;;5095089;28;20644;-61
2021/07/21 00:32:55;;;;;;;7.07;5.67;;;;;;;;;;5095533;28;20333;-61
2021/07/21 00:35:23;;;;;;;7.97;5.93;;;;;;;;;;5095647;28;20315;-61
2021/07/21 00:37:51;;;;;;;7.13;5.68;;;;;;;;;;5095593;28;20200;-61
2021/07/21 00:40:20;;;;;;;8.30;6.03;;;;;;;;;;5095676;28;20210;-63
2021/07/21 00:42:48;;;;;;;9.53;5.93;;;;;;;;;;5095176;28;20308;-61
2021/07/21 00:45:17;;;;;;;10.33;5.83;;;;;;;;;;5094930;28;20240;-61
2021/07/21 00:47:45;;;;;;;7.97;5.87;;;;;;;;;;5095455;28;20204;-62
2021/07/21 00:50:14;;;;;;;8.37;6.30;;;;;;;;;;5094945;28;20203;-61
2021/07/21 00:52:44;;;;;;;7.80;6.10;;;;;;;;;;5094206;28;20228;-61
2021/07/21 00:55:13;;;;;;;7.43;5.90;;;;;;;;;;5094804;28;20235;-61
2021/07/21 00:57:42;;;;;;;7.03;6.13;;;;;;;;;;5094166;28;20734;-61
2021/07/21 01:00:11;;;;;;;8.60;6.05;;;;;;;;;;5094318;28;20214;-61
2021/07/21 01:02:40;;;;;;;6.15;5.55;;;;;;;;;;5094104;28;20216;-61
2021/07/21 01:05:10;;;;;;;7.57;5.83;;;;;;;;;;5094347;28;20223;-61
2021/07/21 01:07:41;;;;;;;6.20;5.60;;;;;;;;;;5094496;28;20275;-60
2021/07/21 01:10:11;;;;;;;11.20;6.20;;;;;;;;;;5094370;28;20184;-61
2021/07/21 01:12:41;;;;;;;7.82;6.65;;;;;;;;;;5094252;28;20257;-62
2021/07/21 01:15:11;;;;;;;7.60;5.60;;;;;;;;;;5093040;28;20672;-61
2021/07/21 01:17:41;;;;;;;7.90;6.20;;;;;;;;;;5094310;28;20203;-61
2021/07/21 01:20:25;;;;;;;7.73;6.20;;;;;;;;;;5094232;28;20207;-62
2021/07/21 01:22:57;;;;;;;7.63;6.50;;;;;;;;;;5060949;28;20224;-60
2021/07/21 01:25:26;;;;;;;9.80;5.97;;;;;;;;;;5093996;28;20639;-61
2021/07/21 01:27:57;;;;;;;7.20;6.00;;;;;;;;;;5093907;28;20204;-62
2021/07/21 01:30:27;;;;;;;7.17;6.33;;;;;;;;;;5093332;28;20599;-61
2021/07/21 01:32:56;;;;;;;8.40;6.83;;;;;;;;;;5093891;28;20196;-61
2021/07/21 01:35:25;;;;;;;7.07;6.37;;;;;;;;;;5093652;28;20242;-62
2021/07/21 01:37:55;;;;;;;7.97;6.33;;;;;;;;;;5093781;28;20223;-61
2021/07/21 01:40:24;;;;;;;9.57;6.80;;;;;;;;;;5093897;28;20196;-62
2021/07/21 01:42:53;;;;;;;8.20;6.73;;;;;;;;;;5077977;28;20231;-61
2021/07/21 01:45:23;;;;;;;8.47;6.73;;;;;;;;;;5073458;28;20287;-61
2021/07/21 01:47:51;;;;;;;11.63;6.43;;;;;;;;;;5073359;28;20200;-62
2021/07/21 01:50:20;;;;;;;8.40;6.60;;;;;;;;;;5073420;28;20201;-61
2021/07/21 01:52:49;;;;;;;7.93;6.60;;;;;;;;;;5092870;28;20719;-62
2021/07/21 01:55:20;;;;;;;9.13;6.13;;;;;;;;;;5093336;28;20711;-62
2021/07/21 01:57:49;;;;;;;7.63;6.82;;;;;;;;;;5093172;28;20194;-62
2021/07/21 02:00:17;;;;;;;7.70;5.73;;;;;;;;;;5093377;28;20199;-61
2021/07/21 02:02:49;;;;;;;7.53;6.72;;;;;;;;;;5093357;28;20307;-62
2021/07/21 02:05:18;;;;;;;7.77;5.93;;;;;;;;;;5093115;28;20644;-61
2021/07/21 02:07:47;;;;;;;8.13;6.70;;;;;;;;;;5093145;28;20290;-62
2021/07/21 02:10:17;;;;;;;7.23;6.17;;;;;;;;;;5093276;28;20287;-62
2021/07/21 02:12:46;;;;;;;8.83;6.50;;;;;;;;;;5093403;28;20290;-63
2021/07/21 02:15:15;;;;;;;8.43;7.03;;;;;;;;;;5092744;28;20282;-59
2021/07/21 02:17:44;;;;;;;9.60;6.57;;;;;;;;;;5093154;28;20208;-61
2021/07/21 02:20:14;;;;;;;7.27;6.43;;;;;;;;;;5093115;28;20290;-61
2021/07/21 02:22:44;;;;;;;7.67;6.50;;;;;;;;;;5093147;28;20295;-61
2021/07/21 02:25:13;;;;;;;7.00;6.30;;;;;;;;;;5092927;28;20286;-62
2021/07/21 02:27:41;;;;;;;9.77;7.20;;;;;;;;;;5092945;28;20206;-62
2021/07/21 02:30:10;;;;;;;8.53;6.77;;;;;;;;;;5092859;28;20199;-61
2021/07/21 02:32:41;;;;;;;8.17;6.50;;;;;;;;;;5093085;28;20283;-63
2021/07/21 02:35:10;;;;;;;8.30;7.23;;;;;;;;;;5093058;28;20196;-61
2021/07/21 02:37:39;;;;;;;7.93;7.00;;;;;;;;;;5093084;28;20210;-61
2021/07/21 02:40:08;;;;;;;9.13;7.33;;;;;;;;;;5095252;28;20204;-61
2021/07/21 02:42:36;;;;;;;8.87;7.83;;;;;;;;;;5096232;28;20215;-62
2021/07/21 02:45:05;;;;;;;9.77;8.17;;;;;;;;;;5094472;28;20199;-61
2021/07/21 02:47:33;;;;;;;9.23;7.23;;;;;;;;;;5092831;28;20632;-61
2021/07/21 02:50:02;;;;;;;10.17;7.53;;;;;;;;;;5093490;28;20208;-60
2021/07/21 02:52:31;;;;;;;9.90;8.37;;;;;;;;;;5092632;28;20573;-62
2021/07/21 02:55:05;;;;;;;9.83;8.07;;;;;;;;;;5092815;28;20774;-61
2021/07/21 02:57:36;;;;;;;9.83;7.40;;;;;;;;;;5092691;28;20696;-63
2021/07/21 03:00:08;;;;;;;10.30;8.20;;;;;;;;;;5092894;28;20603;-60
2021/07/21 03:02:37;;;;;;;12.47;8.10;;;;;;;;;;5092305;28;20211;-61
2021/07/21 03:05:07;;;;;;;11.20;8.63;;;;;;;;;;5092674;28;20685;-62
2021/07/21 03:07:38;;;;;;;9.53;7.80;;;;;;;;;;5092463;28;20204;-62
2021/07/21 03:10:08;;;;;;;11.43;8.27;;;;;;;;;;5092968;28;20184;-62
2021/07/21 03:12:37;;;;;;;9.23;8.20;;;;;;;;;;5092580;28;20191;-62
2021/07/21 03:15:06;;;;;;;8.87;7.97;;;;;;;;;;5092604;28;20206;-62
2021/07/21 03:17:37;;;;;;;9.17;8.17;;;;;;;;;;5092387;28;20564;-61
2021/07/21 03:20:06;;;;;;;9.33;8.33;;;;;;;;;;5092865;28;20181;-62
2021/07/21 03:22:36;;;;;;;9.60;8.20;;;;;;;;;;5092663;28;20224;-63
2021/07/21 03:25:05;;;;;;;11.23;8.57;;;;;;;;;;5092549;28;20202;-63
2021/07/21 03:27:35;;;;;;;9.97;8.40;;;;;;;;;;5092561;28;20291;-63
2021/07/21 03:30:05;;;;;;;10.70;8.13;;;;;;;;;;5092589;28;20271;-63
2021/07/21 03:32:34;;;;;;;11.97;8.23;;;;;;;;;;5092501;28;20387;-62
2021/07/21 03:35:02;;;;;;;11.37;8.60;;;;;;;;;;5092295;28;20705;-60
2021/07/21 03:37:31;;;;;;;11.20;8.07;;;;;;;;;;5093471;28;20211;-62
2021/07/21 03:39:59;;;;;;;9.63;8.73;;;;;;;;;;5096201;28;20200;-62
2021/07/21 03:42:29;;;;;;;9.37;8.27;;;;;;;;;;5083823;28;20256;-62
2021/07/21 03:45:00;;;;;;;9.90;8.40;;;;;;;;;;5075997;28;20200;-61
2021/07/21 03:47:29;;;;;;;11.07;8.20;;;;;;;;;;5075506;28;20271;-61
2021/07/21 03:49:58;;;;;;;10.73;8.53;;;;;;;;;;5075739;28;20214;-61
2021/07/21 03:52:26;;;;;;;11.47;8.03;;;;;;;;;;5092134;28;20344;-62
2021/07/21 03:54:55;;;;;;;9.77;8.13;;;;;;;;;;5095929;28;20219;-61
2021/07/21 03:57:24;;;;;;;11.70;8.63;;;;;;;;;;5095571;28;20673;-62
2021/07/21 03:59:53;;;;;;;9.53;7.67;;;;;;;;;;5095550;28;20723;-60
2021/07/21 04:02:22;;;;;;;9.67;7.60;;;;;;;;;;5095346;28;20204;-61
2021/07/21 04:04:51;;;;;;;11.77;8.37;;;;;;;;;;5095705;28;20227;-60
2021/07/21 04:07:20;;;;;;;11.77;8.57;;;;;;;;;;5095590;28;20207;-61
2021/07/21 04:09:51;;;;;;;11.17;8.17;;;;;;;;;;5095331;28;20217;-61
2021/07/21 04:12:20;;;;;;;10.70;7.97;;;;;;;;;;5095762;28;20185;-61
2021/07/21 04:14:50;;;;;;;10.53;8.03;;;;;;;;;;5095066;28;20192;-61
2021/07/21 04:17:19;;;;;;;8.60;7.70;;;;;;;;;;5095494;28;20204;-62
2021/07/21 04:19:48;;;;;;;9.05;7.80;;;;;;;;;;5095115;28;20206;-62
2021/07/21 04:22:17;;;;;;;10.30;8.43;;;;;;;;;;5095374;28;20286;-61
2021/07/21 04:24:45;;;;;;;9.05;8.15;;;;;;;;;;5095161;28;20220;-61
2021/07/21 04:27:14;;;;;;;9.60;7.93;;;;;;;;;;5095057;28;20200;-61
2021/07/21 04:29:46;;;;;;;10.48;8.32;;;;;;;;;;5094963;28;20196;-61
2021/07/21 04:32:14;;;;;;;10.97;8.27;;;;;;;;;;5094266;28;20637;-62
2021/07/21 04:34:44;;;;;;;10.13;8.00;;;;;;;;;;5095050;28;20238;-61
2021/07/21 04:37:14;;;;;;;10.48;8.00;;;;;;;;;;5094894;28;20221;-62
2021/07/21 04:39:43;;;;;;;9.60;7.50;;;;;;;;;;5094993;28;20204;-61
2021/07/21 04:42:12;;;;;;;8.52;7.63;;;;;;;;;;5094955;28;20199;-61
2021/07/21 04:44:41;;;;;;;11.32;7.40;;;;;;;;;;5094671;28;20286;-61
2021/07/21 04:47:10;;;;;;;9.83;8.60;;;;;;;;;;5094344;28;20669;-61
2021/07/21 04:49:39;;;;;;;11.53;7.47;;;;;;;;;;5094619;28;20207;-61
2021/07/21 04:52:08;;;;;;;10.38;7.38;;;;;;;;;;5094424;28;20227;-61
2021/07/21 04:54:39;;;;;;;8.75;7.60;;;;;;;;;;5094080;28;20227;-61
2021/07/21 04:57:10;;;;;;;10.23;7.87;;;;;;;;;;5094464;28;20283;-60
2021/07/21 04:59:39;;;;;;;8.45;7.28;;;;;;;;;;5094369;28;20180;-61
2021/07/21 05:02:07;;;;;;;9.40;7.13;;;;;;;;;;5094292;28;20299;-63
2021/07/21 05:04:36;;;;;;;9.60;7.50;;;;;;;;;;5094294;28;20228;-61
2021/07/21 05:07:04;;;;;;;8.23;7.33;;;;;;;;;;5094327;28;20236;-61
2021/07/21 05:09:33;;;;;;;9.60;6.65;;;;;;;;;;5094385;28;20291;-61
2021/07/21 05:12:02;;;;;;;9.27;7.53;;;;;;;;;;5094264;28;20203;-60
2021/07/21 05:14:30;;;;;;;9.97;6.97;;;;;;;;;;5093910;28;20208;-60
2021/07/21 05:16:58;;;;;;;10.23;6.83;;;;;;;;;;5094030;28;20191;-61
2021/07/21 05:19:27;;;;;;;9.38;7.60;;;;;;;;;;5093595;28;20208;-60
2021/07/21 05:21:55;;;;;;;9.35;7.05;;;;;;;;;;5093841;28;20390;-61
2021/07/21 05:24:24;;;;;;;7.78;6.97;;;;;;;;;;5093861;28;20216;-61
2021/07/21 05:26:52;;;;;;;10.73;7.00;;;;;;;;;;5093854;28;20204;-60
2021/07/21 05:29:22;;;;;;;8.43;6.50;;;;;;;;;;5093828;28;20211;-61
2021/07/21 05:31:50;;;;;;;7.93;7.13;;;;;;;;;;5093735;28;20597;-60
2021/07/21 05:34:18;;;;;;;9.48;7.15;;;;;;;;;;5093784;28;20192;-62
2021/07/21 05:36:46;;;;;;;7.80;7.00;;;;;;;;;;5093707;28;20206;-61
2021/07/21 05:39:16;;;;;;;7.93;7.00;;;;;;;;;;5093550;28;20200;-61
2021/07/21 05:41:45;;;;;;;9.82;7.13;;;;;;;;;;5093320;28;20200;-62
2021/07/21 05:44:13;;;;;;;10.93;7.80;;;;;;;;;;5093360;28;20216;-60
2021/07/21 05:46:43;;;;;;;8.52;7.07;;;;;;;;;;5093359;28;20199;-62
2021/07/21 05:49:14;;;;;;;7.75;6.55;;;;;;;;;;5093217;28;20192;-61
2021/07/21 05:51:42;;;;;;;9.32;7.20;;;;;;;;;;5092848;28;20246;-61
2021/07/21 05:54:12;;;;;;;8.10;7.00;;;;;;;;;;5093334;28;20283;-61
2021/07/21 05:56:40;;;;;;;8.25;7.32;;;;;;;;;;5092866;28;20200;-62
2021/07/21 05:59:10;;;;;;;8.43;7.50;;;;;;;;;;5093183;28;20196;-62
2021/07/21 06:01:38;;;;;;;9.63;7.90;;;;;;;;;;5092745;28;20214;-60
2021/07/21 06:04:08;;;;;;;9.02;7.15;;;;;;;;;;5092905;28;20561;-60
2021/07/21 06:06:36;;;;;;;9.07;6.82;;;;;;;;;;5093153;28;20208;-61
2021/07/21 06:09:04;;;;;;;10.68;7.78;;;;;;;;;;5093337;28;20278;-61
2021/07/21 06:11:32;;;;;;;8.98;7.40;;;;;;;;;;5093112;28;20200;-61
2021/07/21 06:14:01;;;;;;;9.45;6.97;;;;;;;;;;5093106;28;20208;-61
2021/07/21 06:16:30;;;;;;;8.30;6.80;;;;;;;;;;5092995;28;20296;-62
2021/07/21 06:18:58;;;;;;;8.15;6.80;;;;;;;;;;5093118;28;20211;-61
2021/07/21 06:21:28;;;;;;;10.95;7.30;;;;;;;;;;5093004;28;20199;-61
2021/07/21 06:23:56;;;;;;;9.73;6.82;;;;;;;;;;5092569;28;20220;-62
2021/07/21 06:26:24;;;;;;;9.32;7.57;;;;;;;;;;5092968;28;20207;-62
2021/07/21 06:28:52;;;;;;;9.38;7.32;;;;;;;;;;5092922;28;20204;-62
2021/07/21 06:31:20;;;;;;;10.07;7.50;;;;;;;;;;5092251;28;20200;-60
2021/07/21 06:33:49;;;;;;;9.45;6.82;;;;;;;;;;5092476;28;20203;-62
2021/07/21 06:36:17;;;;;;;9.60;7.72;;;;;;;;;;5092970;28;20222;-62
2021/07/21 06:38:46;;;;;;;9.02;7.30;;;;;;;;;;5092907;28;20204;-61
2021/07/21 06:41:14;;;;;;;9.63;7.68;;;;;;;;;;5092753;28;20202;-61
2021/07/21 06:43:43;;;;;;;9.65;7.10;;;;;;;;;;5092531;28;20645;-61
2021/07/21 06:46:12;;;;;;;12.57;7.82;;;;;;;;;;5092349;28;20202;-62
2021/07/21 06:48:40;;;;;;;9.13;7.68;;;;;;;;;;5091972;28;20296;-61
2021/07/21 06:51:09;;;;;;;10.32;7.85;;;;;;;;;;5092661;28;20232;-61
2021/07/21 06:53:37;;;;;;;8.07;7.22;;;;;;;;;;5092659;28;20216;-61
2021/07/21 06:56:06;;;;;;;9.27;7.32;;;;;;;;;;5092149;28;20192;-62
2021/07/21 06:58:35;;;;;;;9.75;7.10;;;;;;;;;;5091661;28;20200;-61
2021/07/21 07:01:03;;;;;;;7.32;6.63;;;;;;;;;;5091673;28;20204;-60
2021/07/21 07:03:31;;;;;;;10.65;7.28;;;;;;;;;;5091879;28;20231;-62
2021/07/21 07:06:00;;;;;;;8.40;7.43;;;;;;;;;;5091822;28;20220;-61
2021/07/21 07:08:29;;;;;;;9.32;7.50;;;;;;;;;;5092172;28;20234;-61
2021/07/21 07:11:01;;;;;;;10.02;7.60;;;;;;;;;;5092136;28;20195;-61
2021/07/21 07:13:31;;;;;;;11.13;7.22;;;;;;;;;;5094171;28;20200;-61
2021/07/21 07:16:00;;;;;;;12.75;7.90;;;;;;;;;;5095492;28;20287;-62
2021/07/21 07:18:28;;;;;;;10.18;7.47;;;;;;;;;;5096209;28;20267;-62
2021/07/21 07:20:57;;;;;;;13.55;7.53;;;;;;;;;;5095821;28;20262;-61
2021/07/21 07:23:25;;;;;;;10.13;7.28;;;;;;;;;;5096164;28;20299;-62
2021/07/21 07:25:54;;;;;;;9.85;7.63;;;;;;;;;;5095311;28;20679;-62
2021/07/21 07:28:22;;;;;;;12.05;7.72;;;;;;;;;;5095866;28;20200;-61
2021/07/21 07:30:51;;;;;;;8.38;7.20;;;;;;;;;;5095384;28;20200;-60
2021/07/21 07:33:19;;;;;;;9.82;6.82;;;;;;;;;;5095847;28;20229;-62
2021/07/21 07:35:48;;;;;;;10.55;7.07;;;;;;;;;;5095615;28;20200;-62
2021/07/21 07:38:17;;;;;;;7.60;6.57;;;;;;;;;;5095795;28;20206;-61
2021/07/21 07:40:45;;;;;;;10.43;7.20;;;;;;;;;;5095576;28;20200;-62
2021/07/21 07:43:13;;;;;;;8.85;6.50;;;;;;;;;;5096232;28;20200;-62
2021/07/21 07:45:42;;;;;;;9.45;6.70;;;;;;;;;;5098532;28;20222;-62
2021/07/21 07:48:11;;;;;;;7.50;6.60;;;;;;;;;;5098263;28;20290;-62
2021/07/21 07:50:39;;;;;;;11.43;7.30;;;;;;;;;;5098451;28;20196;-62
2021/07/21 07:53:07;;;;;;;10.18;7.03;;;;;;;;;;5096240;28;20191;-63
2021/07/21 07:55:40;;;;;;;9.80;7.05;;;;;;;;;;5096354;28;20243;-62
2021/07/21 07:58:08;;;;;;;7.82;6.60;;;;;;;;;;5095290;28;20207;-61
2021/07/21 08:00:36;;;;;;;9.15;7.10;;;;;;;;;;5095128;28;20648;-62
2021/07/21 08:03:05;;;;;;;9.32;7.53;;;;;;;;;;5094764;28;20211;-61
2021/07/21 08:05:34;;;;;;;8.52;7.15;;;;;;;;;;5094898;28;20220;-61
2021/07/21 08:08:02;;;;;;;11.68;7.25;;;;;;;;;;5094521;28;20201;-62
2021/07/21 08:10:30;;;;;;;8.20;7.00;;;;;;;;;;5094926;28;20572;-62
2021/07/21 08:12:59;;;;;;;8.25;6.65;;;;;;;;;;5094484;28;20204;-61
2021/07/21 08:15:27;;;;;;;7.88;6.57;;;;;;;;;;5094594;28;20668;-62
2021/07/21 08:17:55;;;;;;;7.85;6.55;;;;;;;;;;5094356;28;20204;-62
2021/07/21 08:20:23;;;;;;;8.00;7.07;;;;;;;;;;5094725;28;20196;-62
2021/07/21 08:22:52;;;;;;;8.02;6.63;;;;;;;;;;5094594;28;20192;-61
2021/07/21 08:25:24;;;;;;;8.65;6.85;;;;;;;;;;5094391;28;20220;-62
2021/07/21 08:27:52;;;;;;;11.93;7.22;;;;;;;;;;5094686;28;20180;-61
2021/07/21 08:30:20;;;;;;;8.40;7.00;;;;;;;;;;5094570;28;20200;-61
2021/07/21 08:32:50;;;;;;;8.77;7.10;;;;;;;;;;5094376;28;20218;-62
2021/07/21 08:35:20;;;;;;;8.02;6.95;;;;;;;;;;5093921;28;20542;-61
2021/07/21 08:37:48;;;;;;;7.50;6.30;;;;;;;;;;5094238;28;20203;-62
2021/07/21 08:40:18;;;;;;;8.30;6.60;;;;;;;;;;5094125;28;20907;-61
2021/07/21 08:42:46;;;;;;;6.70;6.00;;;;;;;;;;5093834;28;20203;-61
2021/07/21 08:45:15;;;;;;;8.80;7.05;;;;;;;;;;5093827;28;20809;-62
2021/07/21 08:47:43;;;;;;;7.18;6.20;;;;;;;;;;5094110;28;20200;-61
2021/07/21 08:50:12;;;;;;;6.68;5.50;;;;;;;;;;5094058;28;20202;-62
2021/07/21 08:52:40;;;;;;;6.72;6.03;;;;;;;;;;5093581;28;20317;-61
2021/07/21 08:55:10;;;;;;;6.63;5.57;;;;;;;;;;5093840;28;20207;-62
2021/07/21 08:57:39;;;;;;;6.38;5.70;;;;;;;;;;5093455;28;20665;-63
2021/07/21 09:00:09;;;;;;;7.93;6.45;;;;;;;;;;5093574;28;20675;-63
2021/07/21 09:02:37;;;;;;;8.18;6.57;;;;;;;;;;5093271;28;20667;-61
2021/07/21 09:05:07;;;;;;;8.35;6.43;;;;;;;;;;5093550;28;20207;-62
2021/07/21 09:07:36;;;;;;;9.02;6.13;;;;;;;;;;5093612;28;20200;-62
2021/07/21 09:10:05;;;;;;;9.93;7.20;;;;;;;;;;5093509;28;20201;-62
2021/07/21 09:12:33;;;;;;;9.93;6.68;;;;;;;;;;5093696;28;20227;-61
2021/07/21 09:15:03;;;;;;;10.60;6.72;;;;;;;;;;5093097;28;20207;-62
2021/07/21 09:17:31;;;;;;;7.65;6.63;;;;;;;;;;5093204;28;20210;-62
2021/07/21 09:19:59;;;;;;;7.53;6.28;;;;;;;;;;5093597;28;20767;-62
2021/07/21 09:22:29;;;;;;;7.35;5.80;;;;;;;;;;5093654;28;20206;-62
2021/07/21 09:25:10;;;;;;;7.10;6.03;;;;;;;;;;5093399;28;20196;-61
2021/07/21 09:27:39;;;;;;;7.68;6.38;;;;;;;;;;5093016;28;20204;-62
2021/07/21 09:30:10;;;;;;;8.85;6.25;;;;;;;;;;5093390;28;20200;-62
2021/07/21 09:32:51;;;;;;;8.13;6.18;;;;;;;;;;5093191;28;20185;-61
2021/07/21 09:35:20;;;;;;;8.63;6.05;;;;;;;;;;5092562;28;20184;-61
2021/07/21 09:37:48;;;;;;;5.82;5.22;;;;;;;;;;5093103;28;20230;-62
2021/07/21 09:40:17;;;;;;;7.38;5.82;;;;;;;;;;5092993;28;20258;-61
2021/07/21 09:42:45;;;;;;;6.20;5.53;;;;;;;;;;5092913;28;20196;-61
2021/07/21 09:45:17;;;;;;;6.18;5.55;;;;;;;;;;5093096;28;20211;-62
2021/07/21 09:47:49;;;;;;;6.63;5.78;;;;;;;;;;5093057;28;20214;-62
2021/07/21 09:50:20;;;;;;;6.85;5.63;;;;;;;;;;5092984;28;20241;-62
2021/07/21 09:52:49;;;;;;;6.25;5.65;;;;;;;;;;5092757;28;20228;-61
2021/07/21 09:55:19;;;;;;;6.55;5.75;;;;;;;;;;5092936;28;20223;-64
2021/07/21 09:57:56;;;;;;;7.38;5.45;;;;;;;;;;5092403;28;20631;-61
2021/07/21 10:00:27;;;;;;;6.15;5.50;;;;;;;;;;5092866;28;20180;-61
2021/07/21 10:03:07;;;;;;;6.70;5.70;;;;;;;;;;5092815;28;20190;-61
2021/07/21 10:05:36;;;;;;;6.22;5.57;;;;;;;;;;5092838;28;20184;-61
2021/07/21 10:08:04;;;;;;;7.78;5.80;;;;;;;;;;5092692;28;20196;-62
2021/07/21 10:10:32;;;;;;;6.88;5.95;;;;;;;;;;5092959;28;20200;-61
2021/07/21 10:13:02;;;;;;;6.18;5.57;;;;;;;;;;5092455;28;20196;-63
2021/07/21 10:15:32;;;;;;;6.72;5.35;;;;;;;;;;5092414;28;20554;-61
2021/07/21 10:18:07;;;;;;;7.63;6.45;;;;;;;;;;5092515;28;20222;-62
2021/07/21 10:20:35;;;;;;;7.85;6.53;;;;;;;;;;5092269;28;20204;-61
2021/07/21 10:23:04;;;;;;;11.20;6.78;;;;;;;;;;5092497;28;20210;-62
2021/07/21 10:25:32;;;;;;;8.45;7.03;;;;;;;;;;5092508;28;20203;-62
2021/07/21 10:28:01;;;;;;;8.73;6.80;;;;;;;;;;5091949;28;20280;-63
2021/07/21 10:30:30;;;;;;;8.20;6.80;;;;;;;;;;5092102;28;20717;-62
2021/07/21 10:33:00;;;;;;;10.05;7.60;;;;;;;;;;5092197;28;20204;-61
2021/07/21 10:35:30;;;;;;;10.85;7.25;;;;;;;;;;5092317;28;20200;-61
2021/07/21 10:37:59;;;;;;;8.57;7.00;;;;;;;;;;5092210;28;20196;-62
2021/07/21 10:40:28;;;;;;;9.82;7.78;;;;;;;;;;5091914;28;20200;-61
2021/07/21 10:42:56;;;;;;;9.80;6.50;;;;;;;;;;5091686;28;20196;-62
2021/07/21 10:45:28;;;;;;;10.15;6.85;;;;;;;;;;5092051;28;20206;-62
2021/07/21 10:48:00;;;;;;;7.80;6.55;;;;;;;;;;5091514;28;20660;-62
2021/07/21 10:50:55;;;;;;;8.63;6.72;;;;;;;;;;5091784;28;20188;-64
2021/07/21 10:53:42;;;;;;;7.00;6.28;;;;;;;;;;5092114;28;20199;-63
2021/07/21 10:59:16;;;;;;;7.82;6.32;;;;;;;;;;5092140;28;20222;-63
2021/07/21 11:01:45;;;;;;;7.78;6.03;;;;;;;;;;5091583;28;20765;-62
2021/07/21 11:04:16;;;;;;;9.10;6.95;;;;;;;;;;5091866;28;20184;-62
2021/07/21 11:06:47;;;;;;;7.80;6.13;;;;;;;;;;5091646;28;20224;-62
2021/07/21 11:09:23;;;;;;;8.60;6.22;;;;;;;;;;5092095;28;20192;-62
2021/07/21 11:11:54;;;;;;;7.85;6.53;;;;;;;;;;5091701;28;20690;-61
2021/07/21 11:14:23;;;;;;;8.27;6.13;;;;;;;;;;5091742;28;20682;-62
2021/07/21 11:16:52;;;;;;;9.00;6.60;;;;;;;;;;5091938;28;20200;-61
2021/07/21 11:19:31;;;;;;;6.57;5.55;;;;;;;;;;5091733;28;20211;-62
2021/07/21 11:22:01;;;;;;;5.97;5.38;;;;;;;;;;5092033;28;20673;-62
2021/07/21 11:24:30;;;;;;;7.32;5.70;;;;;;;;;;5092207;28;20231;-62
2021/07/21 11:26:58;;;;;;;6.95;6.03;;;;;;;;;;5091897;28;20224;-63
2021/07/21 11:29:47;;;;;;;7.03;6.07;;;;;;;;;;5092134;28;20200;-61
2021/07/21 11:32:26;;;;;;;9.98;6.32;;;;;;;;;;5091731;28;20203;-62
2021/07/21 11:34:54;;;;;;;8.93;6.90;;;;;;;;;;5092282;28;20207;-62
2021/07/21 11:37:29;;;;;;;8.25;6.32;;;;;;;;;;5091792;28;20556;-62
2021/07/21 11:39:58;;;;;;;6.50;5.88;;;;;;;;;;5091765;28;20513;-62
2021/07/21 11:42:34;;;;;;;8.30;6.57;;;;;;;;;;5092531;28;20204;-61
2021/07/21 11:45:09;;;;;;;8.82;6.13;;;;;;;;;;5091820;28;20184;-62
2021/07/21 11:47:38;;;;;;;7.25;6.30;;;;;;;;;;5091408;28;20199;-62
2021/07/21 11:50:08;;;;;;;8.38;6.72;;;;;;;;;;5091730;28;20196;-62
2021/07/21 11:52:38;;;;;;;7.65;6.53;;;;;;;;;;5091259;28;20704;-63
2021/07/21 11:55:08;;;;;;;7.82;6.05;;;;;;;;;;5091824;28;20262;-62
2021/07/21 11:57:36;;;;;;;7.57;5.72;;;;;;;;;;5092088;28;20196;-62
2021/07/21 12:00:05;;;;;;;7.35;5.57;;;;;;;;;;5094918;28;20200;-62
2021/07/21 12:02:33;;;;;;;6.50;5.90;;;;;;;;;;5095112;28;20200;-63
2021/07/21 12:05:05;;;;;;;6.03;5.43;;;;;;;;;;5095038;28;20243;-61
2021/07/21 12:10:14;;;;;;;6.43;5.43;;;;;;;;;;5086526;28;20376;-62
2021/07/21 12:12:43;;;;;;;7.20;5.63;;;;;;;;;;5095301;28;20200;-62
2021/07/21 12:15:11;;;;;;;6.88;5.68;;;;;;;;;;5095529;28;20200;-61
2021/07/21 12:17:40;;;;;;;7.85;5.70;;;;;;;;;;5095502;28;20275;-63
2021/07/21 12:20:09;;;;;;;10.35;5.80;;;;;;;;;;5095566;28;20200;-63
2021/07/21 12:22:38;;;;;;;7.53;5.55;;;;;;;;;;5095342;28;20698;-62
2021/07/21 12:25:07;;;;;;;5.93;5.32;;;;;;;;;;5094911;28;20306;-62
2021/07/21 12:27:38;;;;;;;6.57;5.22;;;;;;;;;;5095026;28;20222;-61
2021/07/21 12:30:08;;;;;;;6.32;5.13;;;;;;;;;;5095384;28;20200;-62
2021/07/21 12:32:37;;;;;;;6.13;5.25;;;;;;;;;;5094953;28;20287;-61
2021/07/21 12:35:06;;;;;;;7.35;5.47;;;;;;;;;;5095014;28;20196;-61
2021/07/21 12:37:38;;;;;;;6.32;5.60;;;;;;;;;;5095024;28;20674;-62
2021/07/21 12:40:12;;;;;;;6.85;5.40;;;;;;;;;;5096324;28;20289;-62
2021/07/21 12:42:42;;;;;;;5.57;5.00;;;;;;;;;;5098161;28;20283;-62
2021/07/21 12:45:11;;;;;;;7.55;4.78;;;;;;;;;;5076582;28;20203;-62
2021/07/21 12:47:40;;;;;;;6.22;5.15;;;;;;;;;;5075240;28;20305;-62
2021/07/21 12:50:10;;;;;;;5.57;4.70;;;;;;;;;;5075159;28;20222;-63
2021/07/21 12:52:41;;;;;;;6.25;5.60;;;;;;;;;;5075144;28;20651;-61
2021/07/21 12:55:11;;;;;;;6.82;5.68;;;;;;;;;;5074872;28;20295;-63
2021/07/21 12:57:43;;;;;;;5.70;5.07;;;;;;;;;;5074935;28;20196;-63
2021/07/21 13:00:13;;;;;;;7.47;5.53;;;;;;;;;;5074521;28;20196;-61
2021/07/21 13:02:41;;;;;;;5.80;5.20;;;;;;;;;;5074447;28;20222;-61
2021/07/21 13:05:27;;;;;;;7.45;5.30;;;;;;;;;;5074905;28;20200;-61
2021/07/21 13:07:56;;;;;;;7.85;5.75;;;;;;;;;;5074215;28;20828;-62
2021/07/21 13:10:24;;;;;;;7.15;5.22;;;;;;;;;;5089996;28;20204;-62
2021/07/21 13:12:54;;;;;;;6.80;4.75;;;;;;;;;;5094621;28;20286;-61
2021/07/21 13:15:29;;;;;;;9.13;5.90;;;;;;;;;;5094445;28;20206;-61
2021/07/21 13:18:08;;;;;;;7.88;5.68;;;;;;;;;;5094400;28;20253;-62
2021/07/21 13:20:43;;;;;;;6.68;4.90;;;;;;;;;;5094649;28;20189;-62
2021/07/21 13:23:18;;;;;;;6.55;5.55;;;;;;;;;;5094534;28;20181;-62
2021/07/21 13:25:47;;;;;;;6.80;4.93;;;;;;;;;;5093783;28;20187;-62
2021/07/21 13:28:25;;;;;;;6.00;5.40;;;;;;;;;;5094135;28;20215;-61
2021/07/21 13:30:53;;;;;;;9.90;4.13;;;;;;;;;;5094281;28;20231;-63
2021/07/21 13:33:29;;;;;;;5.00;4.00;;;;;;;;;;5093810;28;20718;-61
2021/07/21 13:36:04;;;;;;;4.13;3.65;;;;;;;;;;5093944;28;20829;-62
2021/07/21 13:38:32;;;;;;;4.75;3.88;;;;;;;;;;5093584;28;20202;-62
2021/07/21 13:41:02;;;;;;;4.65;3.20;;;;;;;;;;5093614;28;20698;-62
2021/07/21 13:43:32;;;;;;;3.85;3.42;;;;;;;;;;5094366;28;20202;-62
2021/07/21 13:46:20;;;;;;;3.90;3.50;;;;;;;;;;5094217;28;20295;-61
2021/07/21 13:48:55;;;;;;;5.00;3.78;;;;;;;;;;5094119;28;20215;-62
2021/07/21 13:51:29;;;;;;;7.93;5.35;;;;;;;;;;5093601;28;20314;-62
2021/07/21 13:53:57;;;;;;;4.90;4.07;;;;;;;;;;5093659;28;20190;-62
2021/07/21 13:56:25;;;;;;;4.72;4.03;;;;;;;;;;5094025;28;20200;-62
2021/07/21 13:58:55;;;;;;;4.43;3.80;;;;;;;;;;5093708;28;20309;-62
2021/07/21 14:01:23;;;;;;;4.15;3.70;;;;;;;;;;5093688;28;20199;-63
2021/07/21 14:03:58;;;;;;;6.03;3.83;;;;;;;;;;5093442;28;20241;-62
2021/07/21 14:06:26;;;;;;;4.43;3.88;;;;;;;;;;5093707;28;20512;-61
2021/07/21 14:08:54;;;;;;;4.85;3.65;;;;;;;;;;5093015;28;21015;-61
2021/07/21 14:11:22;;;;;;;3.92;3.25;;;;;;;;;;5093429;28;20202;-62
2021/07/21 14:13:51;;;;;;;5.00;3.20;;;;;;;;;;5093370;28;20202;-62
2021/07/21 14:16:21;;;;;;;8.05;3.63;;;;;;;;;;5093328;28;20200;-62
2021/07/21 14:18:49;;;;;;;3.97;3.50;;;;;;;;;;5093569;28;20208;-61
2021/07/21 14:21:18;;;;;;;3.70;3.15;;;;;;;;;;5092480;28;20636;-62
2021/07/21 14:23:46;;;;;;;4.13;3.38;;;;;;;;;;5093047;28;20222;-62
2021/07/21 14:26:14;;;;;;;4.97;3.60;;;;;;;;;;5093304;28;20290;-61
2021/07/21 14:28:43;;;;;;;6.50;3.80;;;;;;;;;;5092845;28;20216;-64
2021/07/21 14:31:12;;;;;;;4.20;3.55;;;;;;;;;;5093026;28;20243;-61
2021/07/21 14:33:42;;;;;;;3.83;3.25;;;;;;;;;;5093213;28;20291;-63
2021/07/21 14:36:10;;;;;;;4.65;3.58;;;;;;;;;;5093065;28;20202;-62
2021/07/21 14:38:38;;;;;;;5.68;4.10;;;;;;;;;;5092787;28;20218;-62
2021/07/21 14:41:06;;;;;;;5.22;4.20;;;;;;;;;;5092875;28;20732;-61
2021/07/21 14:43:36;;;;;;;5.15;4.00;;;;;;;;;;5093125;28;20206;-62
2021/07/21 14:46:06;;;;;;;5.63;4.25;;;;;;;;;;5092870;28;20235;-62
2021/07/21 14:48:34;;;;;;;6.07;4.47;;;;;;;;;;5092855;28;20243;-62
2021/07/21 14:51:05;;;;;;;4.25;3.85;;;;;;;;;;5092677;28;20666;-61
2021/07/21 14:53:33;;;;;;;4.47;3.83;;;;;;;;;;5092776;28;20202;-62
2021/07/21 14:56:01;;;;;;;5.30;4.47;;;;;;;;;;5092798;28;20200;-61
2021/07/21 14:58:29;;;;;;;4.70;4.25;;;;;;;;;;5093003;28;20202;-62
2021/07/21 15:00:58;;;;;;;5.35;4.43;;;;;;;;;;5092951;28;20586;-61
2021/07/21 15:03:27;;;;;;;5.25;4.00;;;;;;;;;;5092917;28;20286;-61